Accueil
METAR-TAF:

METAR-TAF

Aéroports :

Siegen, Allemagne

latitude: 50-42-28N, longitude: 008-04-59E, altitude: 602 m

Observation

Le bulletin a été fait il y a 4 heures et 7 minutes, à 18:50 UTC
Vent 5 kt de ouest/nord-ouest
Température 23°C
Humidité 57%
Pression 1020 hPa
Visibilité 10 km ou plus
pas de nuages en-dessous de 1500 mètres et pas de cumulonimbus.

METAR: EDGS 201850Z 30005KT CAVOK 23/14 Q1020

Heure: 00:57 (22:57 UTC)

Prévision

Le bulletin a été fait il y a 5 heures et 57 minutes, à 17:00 UTC
Prévision valable du 20 à 18 UTC au 21 à 03 UTC
Vent 7 kt de ouest
Visibilité 10 km ou plus
Quelques nuages à une hauteur de 4000 ft

TAF: EDGS 201700Z 2018/2103 27007KT 9999 FEW040

Observations et prévisions météorologiques de plus de 4000 aéroports (messages METAR et TAF).

Les stations disponibles sont représentées par des disques jaunes et rouges sur la carte.

Passer la souris dessus pour voir le nom de la station.

Cliquer dessus pour voir les observations et prévisions météorologiques.

Pour changer de carte: cliquez sur les boutons verts avec une croix noire pour zoomer, sur le bouton vert avec un tiret pour effectuer un zoom arrière, ou sur les flèches vertes pour les cartes adjacentes.


METAR-TAF: